Time;durP1;ratioP1;P1;durP2;ratioP2;P2;SDS_P1;SDS_P2;PMS_P1;PMS_P2;Temp;Humidity;BMP_temperature;BMP_pressure;BME280_temperature;BME280_humidity;BME280_pressure;Samples;Min_cycle;Max_cycle;Signal;HPM_P1;HPM_P2
2022/11/15 06:54:02;;;;;;;45.40;25.77;;;;;;;6.28;100.00;99404.41;6223570;23;20546;-81
2022/11/15 06:56:48;;;;;;;40.47;22.90;;;;;;;6.38;100.00;99409.38;6190964;23;20166;-81
2022/11/15 06:59:33;;;;;;;39.87;22.77;;;;;;;6.41;100.00;99416.94;6190162;23;20627;-80
2022/11/15 07:02:25;;;;;;;42.27;23.57;;;;;;;6.44;100.00;99417.38;6190014;23;20161;-81
2022/11/15 07:05:10;;;;;;;43.13;23.53;;;;;;;6.45;100.00;99412.88;6189427;23;20162;-81
2022/11/15 07:07:57;;;;;;;44.03;22.77;;;;;;;6.47;100.00;99402.84;6190912;23;20166;-81
2022/11/15 07:10:42;;;;;;;38.73;22.73;;;;;;;6.46;100.00;99403.88;6189275;23;20189;-81
2022/11/15 07:13:29;;;;;;;40.30;22.20;;;;;;;6.47;100.00;99403.69;6190958;23;20232;-81
2022/11/15 07:16:15;;;;;;;40.60;22.77;;;;;;;6.47;100.00;99403.69;6191506;23;20237;-81
2022/11/15 07:19:00;;;;;;;44.60;21.63;;;;;;;6.47;100.00;99401.03;6190951;23;20173;-81
2022/11/15 07:21:46;;;;;;;44.23;23.47;;;;;;;6.50;100.00;99397.13;6191711;23;20242;-82
2022/11/15 07:24:31;;;;;;;42.47;23.13;;;;;;;6.56;100.00;99399.00;6190122;23;20189;-81
2022/11/15 07:27:16;;;;;;;44.43;22.53;;;;;;;6.67;100.00;99408.25;6190664;23;20158;-81
2022/11/15 07:30:02;;;;;;;47.20;23.53;;;;;;;6.72;100.00;99411.94;6190607;23;20213;-81
2022/11/15 07:33:00;;;;;;;44.90;23.50;;;;;;;6.73;100.00;99396.78;6190573;23;20560;-81
2022/11/15 07:35:48;;;;;;;39.87;23.23;;;;;;;6.88;100.00;99397.47;6191049;23;20615;-81
2022/11/15 07:38:35;;;;;;;49.30;24.57;;;;;;;6.96;100.00;99411.41;6192663;23;20173;-81
2022/11/15 07:41:27;;;;;;;42.40;22.77;;;;;;;6.95;100.00;99396.44;6191103;23;20165;-81
2022/11/15 07:44:16;;;;;;;47.27;24.00;;;;;;;6.98;100.00;99397.91;6189933;23;20492;-80
2022/11/15 07:47:01;;;;;;;41.90;23.17;;;;;;;6.94;100.00;99389.50;6189306;23;20157;-81
2022/11/15 07:49:47;;;;;;;50.80;24.83;;;;;;;7.07;100.00;99391.34;6188479;23;20157;-81
2022/11/15 07:52:32;;;;;;;55.83;26.07;;;;;;;7.13;100.00;99385.22;6188032;23;20189;-81
2022/11/15 07:55:17;;;;;;;45.90;25.07;;;;;;;7.13;100.00;99377.22;6210856;23;20570;-81
2022/11/15 07:58:08;;;;;;;46.07;24.30;;;;;;;7.16;100.00;99368.81;6219247;23;20590;-80
2022/11/15 08:00:53;;;;;;;46.73;25.07;;;;;;;7.25;100.00;99375.59;6218418;23;20160;-80
2022/11/15 08:03:39;;;;;;;44.77;25.47;;;;;;;7.25;100.00;99369.44;6219118;23;20160;-81
2022/11/15 08:06:24;;;;;;;43.37;24.10;;;;;;;7.23;100.00;99369.63;6218447;23;20172;-81
2022/11/15 08:09:09;;;;;;;43.33;25.20;;;;;;;7.27;100.00;99376.22;6218628;23;20161;-81
2022/11/15 08:11:54;;;;;;;46.57;26.37;;;;;;;7.25;100.00;99366.78;6196468;23;20267;-81
2022/11/15 08:14:39;;;;;;;49.33;27.90;;;;;;;7.20;100.00;99370.03;6219117;23;20165;-81
2022/11/15 08:17:25;;;;;;;48.47;28.00;;;;;;;7.26;100.00;99373.75;6219036;23;20220;-81
2022/11/15 08:20:10;;;;;;;42.90;25.50;;;;;;;7.32;100.00;99367.59;6195641;23;20161;-80
2022/11/15 08:22:57;;;;;;;44.53;24.97;;;;;;;7.43;100.00;99373.13;6217405;23;20204;-80
2022/11/15 08:25:42;;;;;;;41.30;24.67;;;;;;;7.66;100.00;99375.38;6195010;23;20183;-80
2022/11/15 08:28:28;;;;;;;43.10;24.43;;;;;;;7.80;100.00;99379.66;6217728;23;20161;-80
2022/11/15 08:31:15;;;;;;;39.07;23.83;;;;;;;7.81;100.00;99365.31;6218627;23;20231;-81
2022/11/15 08:34:01;;;;;;;39.27;23.93;;;;;;;7.90;100.00;99372.06;6220232;23;20649;-81
2022/11/15 08:36:46;;;;;;;39.10;23.80;;;;;;;7.93;100.00;99365.50;6223703;23;20186;-82
2022/11/15 08:39:31;;;;;;;39.87;24.47;;;;;;;7.93;100.00;99371.63;6221729;23;20196;-81
2022/11/15 08:42:17;;;;;;;46.07;24.27;;;;;;;7.91;100.00;99367.53;6196937;23;20202;-81
2022/11/15 08:45:04;;;;;;;38.27;24.33;;;;;;;7.98;100.00;99361.16;6197456;23;20167;-81
2022/11/15 08:47:49;;;;;;;41.00;25.50;;;;;;;8.03;100.00;99373.88;6219264;23;20161;-81
2022/11/15 08:50:38;;;;;;;36.57;23.27;;;;;;;8.17;100.00;99364.78;6197335;23;20169;-81
2022/11/15 08:53:23;;;;;;;41.87;23.93;;;;;;;8.29;100.00;99364.97;6219210;23;20165;-81
2022/11/15 08:56:10;;;;;;;37.13;23.10;;;;;;;8.47;100.00;99358.97;6219184;23;20192;-81
2022/11/15 08:58:55;;;;;;;38.43;22.43;;;;;;;8.53;100.00;99353.59;6224211;23;20157;-82
2022/11/15 09:01:41;;;;;;;34.80;22.03;;;;;;;8.60;100.00;99348.22;6235054;23;20508;-83
2022/11/15 09:04:27;;;;;;;39.30;22.80;;;;;;;8.70;100.00;99346.72;6213119;23;20505;-82
2022/11/15 09:07:13;;;;;;;37.37;22.50;;;;;;;8.87;100.00;99351.53;6212635;23;20167;-83
2022/11/15 09:09:58;;;;;;;35.67;21.60;;;;;;;9.03;100.00;99351.03;6212564;23;20473;-82
2022/11/15 09:12:45;;;;;;;34.97;21.90;;;;;;;9.09;100.00;99351.00;6234402;23;20244;-83
2022/11/15 09:15:30;;;;;;;33.77;21.30;;;;;;;9.17;100.00;99341.91;6235588;23;20176;-83
2022/11/15 09:18:19;;;;;;;34.20;21.87;;;;;;;9.01;100.00;99337.88;6236050;23;20164;-83
2022/11/15 09:21:07;;;;;;;31.43;20.27;;;;;;;8.93;100.00;99338.16;6235336;23;20165;-83
2022/11/15 09:23:52;;;;;;;32.70;20.37;;;;;;;8.91;100.00;99326.06;6212373;23;20161;-82
2022/11/15 09:26:38;;;;;;;33.57;20.83;;;;;;;8.85;100.00;99327.75;6233332;23;20156;-82
2022/11/15 09:29:23;;;;;;;32.47;20.33;;;;;;;8.80;100.00;99331.06;6234446;23;20184;-83
2022/11/15 09:32:09;;;;;;;34.03;21.50;;;;;;;8.90;100.00;99317.22;6235547;23;20209;-82
2022/11/15 09:34:59;;;;;;;31.87;20.50;;;;;;;9.21;100.00;99313.69;6216345;23;20165;-83
2022/11/15 19:51:26;;;;;;;25.87;19.70;;;;;;;8.17;100.00;98753.72;6215297;23;20205;-80
2022/11/15 19:53:55;;;;;;;26.50;19.83;;;;;;;8.20;100.00;98747.97;6196721;23;20224;-80
2022/11/15 19:56:22;;;;;;;28.67;19.67;;;;;;;8.20;100.00;98745.28;6196282;23;20178;-80
2022/11/15 19:58:52;;;;;;;27.57;19.30;;;;;;;8.21;100.00;98732.75;6195131;23;20158;-79
2022/11/15 20:01:21;;;;;;;28.60;20.03;;;;;;;8.28;100.00;98733.47;6194509;23;20173;-81
2022/11/15 20:03:49;;;;;;;31.47;21.30;;;;;;;8.30;100.00;98728.78;6192903;23;20165;-80
2022/11/15 20:06:17;;;;;;;73.07;39.83;;;;;;;8.22;100.00;98729.03;6193382;23;20158;-80
2022/11/15 20:08:49;;;;;;;56.37;35.83;;;;;;;8.28;100.00;98736.97;6197974;23;20172;-81
2022/11/15 20:11:16;;;;;;;32.40;25.27;;;;;;;8.22;100.00;98724.50;6196627;23;20158;-80
2022/11/15 20:13:43;;;;;;;32.17;22.67;;;;;;;8.24;100.00;98724.28;6191663;23;20166;-79
2022/11/15 20:16:16;;;;;;;32.23;22.30;;;;;;;8.20;100.00;98723.94;6194855;23;20194;-81
2022/11/15 20:18:45;;;;;;;29.17;21.10;;;;;;;8.20;100.00;98725.78;6197798;23;20177;-80
2022/11/15 20:21:12;;;;;;;29.30;20.70;;;;;;;8.24;100.00;98711.78;6202951;23;20186;-81
2022/11/15 20:23:41;;;;;;;28.57;20.73;;;;;;;8.22;100.00;98716.50;6234086;23;20166;-81
2022/11/15 20:26:08;;;;;;;28.83;21.53;;;;;;;8.21;100.00;98716.75;6196268;23;20547;-80
2022/11/15 20:28:36;;;;;;;31.87;22.60;;;;;;;8.27;100.00;98711.31;6218326;23;20193;-79
2022/11/15 20:31:03;;;;;;;33.37;22.43;;;;;;;8.27;100.00;98705.97;6218592;23;20166;-79
2022/11/15 20:33:31;;;;;;;30.73;20.90;;;;;;;8.32;100.00;98706.13;6217767;23;20193;-80
2022/11/15 20:36:14;;;;;;;29.03;20.47;;;;;;;8.24;100.00;98702.94;6230193;23;20256;-82
